Terminal Aerodrome Forecast
Issued by NWS Flagstaff, AZ

Home | Current Version | Previous Version | Text Only | Print | Product List | Glossary On
Versions: 1 2 3 4 5 6 7 8 9 10 11 12 13
000
FTUS45 KFGZ 192320
TAFFLG
TAF
KFLG 192320Z 2000/2024 23020G30KT P6SM SCT250
     FM200130 22006KT P6SM FEW250
     FM201500 22008G15KT P6SM FEW250
     FM201800 21018G30KT P6SM SKC=

USA.gov is the U.S. government's official web portal to all federal, state and local government web resources and services.